Time,TemperatureF,DewpointF,PressureIn,WindDirection,WindDirectionDegrees,WindSpeedMPH,WindSpeedGustMPH,Humidity,HourlyPrecipIn,Conditions,Clouds,dailyrainin,SoftwareType,DateUTC
2013-06-04 00:03:00,60.0,58.0,29.78,WNW,296,1.0,10.0,93,0.00,,,0.78,,2013-06-04 04:03:00,
2013-06-04 00:13:00,60.0,58.0,29.78,WNW,296,1.0,10.0,93,0.00,,,0.78,,2013-06-04 04:13:00,
2013-06-04 00:23:00,60.0,58.0,29.78,WNW,300,3.0,9.0,93,0.00,,,0.78,,2013-06-04 04:23:00,
2013-06-04 00:33:00,59.0,57.0,29.79,NNW,333,3.0,11.0,93,0.00,,,0.78,,2013-06-04 04:33:00,
2013-06-04 00:42:00,59.0,57.0,29.79,NNW,333,3.0,11.0,93,0.00,,,0.78,,2013-06-04 04:42:00,
2013-06-04 00:53:00,59.0,57.0,29.79,NW,311,2.0,7.0,93,0.00,,,0.78,,2013-06-04 04:53:00,
2013-06-04 01:02:00,57.0,55.0,29.79,NW,313,2.0,9.0,92,0.00,,,0.78,,2013-06-04 05:02:00,
2013-06-04 01:12:00,57.0,55.0,29.79,NW,313,2.0,9.0,92,0.00,,,0.78,,2013-06-04 05:12:00,
2013-06-04 01:22:00,56.0,54.0,29.80,NW,315,3.0,10.0,92,0.00,,,0.78,,2013-06-04 05:22:00,
2013-06-04 01:32:00,54.0,51.0,29.81,WNW,300,4.0,12.0,91,0.00,,,0.78,,2013-06-04 05:32:00,
2013-06-04 01:42:00,54.0,51.0,29.81,WNW,300,4.0,12.0,91,0.00,,,0.78,,2013-06-04 05:42:00,
2013-06-04 01:52:00,53.0,50.0,29.81,North,355,4.0,10.0,91,0.00,,,0.78,,2013-06-04 05:52:00,
2013-06-04 02:02:00,53.0,50.0,29.81,NW,311,3.0,10.0,91,0.00,,,0.78,,2013-06-04 06:02:00,
2013-06-04 02:12:00,53.0,50.0,29.81,NW,311,3.0,10.0,91,0.00,,,0.78,,2013-06-04 06:12:00,
2013-06-04 02:22:00,52.0,49.0,29.81,NW,319,4.0,12.0,91,0.00,,,0.78,,2013-06-04 06:22:00,
2013-06-04 02:32:00,52.0,49.0,29.81,NW,311,6.0,14.0,91,0.00,,,0.78,,2013-06-04 06:32:00,
2013-06-04 02:42:00,52.0,49.0,29.81,NW,311,6.0,14.0,91,0.00,,,0.78,,2013-06-04 06:42:00,
2013-06-04 02:52:00,51.0,48.0,29.81,NNW,328,3.0,10.0,91,0.00,,,0.78,,2013-06-04 06:52:00,
2013-06-04 03:02:00,51.0,48.0,29.81,NNW,337,4.0,13.0,90,0.00,,,0.78,,2013-06-04 07:02:00,
2013-06-04 03:12:00,51.0,48.0,29.81,NNW,337,4.0,13.0,90,0.00,,,0.78,,2013-06-04 07:12:00,
2013-06-04 03:22:00,51.0,48.0,29.82,West,275,4.0,14.0,88,0.00,,,0.78,,2013-06-04 07:22:00,
2013-06-04 03:32:00,51.0,47.0,29.82,WNW,295,4.0,10.0,87,0.00,,,0.78,,2013-06-04 07:32:00,
2013-06-04 03:42:00,51.0,47.0,29.82,WNW,295,4.0,10.0,87,0.00,,,0.78,,2013-06-04 07:42:00,
2013-06-04 03:52:00,51.0,48.0,29.82,WNW,283,3.0,7.0,88,0.00,,,0.78,,2013-06-04 07:52:00,
2013-06-04 04:02:00,51.0,47.0,29.82,NW,319,7.0,13.0,86,0.00,,,0.78,,2013-06-04 08:02:00,
2013-06-04 04:12:00,51.0,47.0,29.83,North,351,4.0,12.0,85,0.00,,,0.78,,2013-06-04 08:12:00,
2013-06-04 04:22:00,51.0,47.0,29.83,North,351,4.0,12.0,85,0.00,,,0.78,,2013-06-04 08:22:00,
2013-06-04 04:32:00,50.0,46.0,29.83,NNW,331,4.0,11.0,85,0.00,,,0.78,,2013-06-04 08:32:00,
2013-06-04 04:42:00,50.0,46.0,29.83,NNW,331,4.0,11.0,85,0.00,,,0.78,,2013-06-04 08:42:00,
2013-06-04 04:52:00,49.0,45.0,29.83,NW,323,3.0,11.0,85,0.00,,,0.78,,2013-06-04 08:52:00,
2013-06-04 05:02:00,49.0,45.0,29.83,NNW,333,2.0,7.0,86,0.00,,,0.78,,2013-06-04 09:02:00,
2013-06-04 05:12:00,49.0,45.0,29.83,NNW,333,2.0,7.0,86,0.00,,,0.78,,2013-06-04 09:12:00,
2013-06-04 05:22:00,48.0,44.0,29.83,WNW,285,2.0,6.0,86,0.00,,,0.78,,2013-06-04 09:22:00,
2013-06-04 05:33:00,48.0,45.0,29.84,NW,319,3.0,7.0,88,0.00,,,0.78,,2013-06-04 09:33:00,
2013-06-04 05:43:00,48.0,45.0,29.84,NW,319,3.0,7.0,88,0.00,,,0.78,,2013-06-04 09:43:00,
2013-06-04 05:53:00,48.0,44.0,29.84,West,265,4.0,9.0,87,0.00,,,0.78,,2013-06-04 09:53:00,
2013-06-04 06:03:00,48.0,44.0,29.85,WNW,287,0.0,6.0,87,0.00,,,0.78,,2013-06-04 10:03:00,
2013-06-04 06:12:00,48.0,44.0,29.85,WNW,287,0.0,6.0,87,0.00,,,0.78,,2013-06-04 10:12:00,
2013-06-04 06:23:00,48.0,44.0,29.85,NNW,333,1.0,5.0,87,0.00,,,0.78,,2013-06-04 10:23:00,
2013-06-04 06:33:00,48.0,45.0,29.85,NNW,336,3.0,7.0,89,0.00,,,0.78,,2013-06-04 10:33:00,
2013-06-04 06:42:00,49.0,46.0,29.86,NW,308,3.0,10.0,88,0.00,,,0.78,,2013-06-04 10:42:00,
2013-06-04 06:52:00,49.0,46.0,29.86,NW,308,3.0,10.0,88,0.00,,,0.78,,2013-06-04 10:52:00,
2013-06-04 07:02:00,49.0,45.0,29.86,North,360,0.0,6.0,87,0.00,,,0.78,,2013-06-04 11:02:00,
2013-06-04 07:12:00,49.0,45.0,29.86,North,360,0.0,6.0,87,0.00,,,0.78,,2013-06-04 11:12:00,
2013-06-04 07:22:00,50.0,46.0,29.86,NW,319,0.0,5.0,87,0.00,,,0.78,,2013-06-04 11:22:00,
2013-06-04 07:32:00,52.0,48.0,29.86,NNW,348,1.0,7.0,85,0.00,,,0.78,,2013-06-04 11:32:00,
2013-06-04 07:42:00,52.0,48.0,29.86,NNW,348,1.0,7.0,85,0.00,,,0.78,,2013-06-04 11:42:00,
2013-06-04 07:52:00,53.0,47.0,29.86,NNE,17,4.0,12.0,81,0.00,,,0.78,,2013-06-04 11:52:00,
2013-06-04 08:02:00,56.0,48.0,29.87,NW,323,4.0,12.0,75,0.00,,,0.73,,2013-06-04 12:02:00,
2013-06-04 08:12:00,56.0,48.0,29.87,NW,323,4.0,12.0,75,0.00,,,0.73,,2013-06-04 12:12:00,
2013-06-04 08:22:00,57.0,49.0,29.87,NNW,338,7.0,12.0,74,0.00,,,0.73,,2013-06-04 12:22:00,
2013-06-04 08:32:00,59.0,49.0,29.87,WNW,298,5.0,13.0,69,0.00,,,0.73,,2013-06-04 12:32:00,
2013-06-04 08:42:00,59.0,49.0,29.87,WNW,298,5.0,13.0,69,0.00,,,0.73,,2013-06-04 12:42:00,
2013-06-04 08:52:00,59.0,50.0,29.87,West,277,4.0,15.0,71,0.00,,,0.73,,2013-06-04 12:52:00,
2013-06-04 09:03:00,60.0,49.0,29.87,NNW,337,5.0,16.0,68,0.00,,,0.72,,2013-06-04 13:03:00,
2013-06-04 09:12:00,60.0,49.0,29.87,NNW,337,5.0,16.0,68,0.00,,,0.72,,2013-06-04 13:12:00,
2013-06-04 09:22:00,61.0,49.0,29.88,NNW,339,5.0,18.0,65,0.00,,,0.72,,2013-06-04 13:22:00,
2013-06-04 09:32:00,62.0,50.0,29.88,North,350,4.0,17.0,64,0.00,,,0.72,,2013-06-04 13:32:00,
2013-06-04 09:42:00,62.0,50.0,29.88,North,350,4.0,17.0,64,0.00,,,0.72,,2013-06-04 13:42:00,
2013-06-04 09:52:00,62.0,49.0,29.88,NNW,338,7.0,14.0,62,0.00,,,0.72,,2013-06-04 13:52:00,
2013-06-04 10:02:00,63.0,49.0,29.87,North,355,5.0,13.0,61,0.00,,,0.71,,2013-06-04 14:02:00,
2013-06-04 10:12:00,63.0,49.0,29.87,North,355,5.0,13.0,61,0.00,,,0.71,,2013-06-04 14:12:00,
2013-06-04 10:22:00,63.0,49.0,29.88,NW,317,4.0,15.0,61,0.00,,,0.71,,2013-06-04 14:22:00,
2013-06-04 10:32:00,65.0,51.0,29.87,NNW,331,6.0,12.0,60,0.00,,,0.71,,2013-06-04 14:32:00,
2013-06-04 10:42:00,65.0,51.0,29.87,NNW,331,6.0,12.0,60,0.00,,,0.71,,2013-06-04 14:42:00,
2013-06-04 10:52:00,65.0,48.0,29.88,NNW,345,3.0,18.0,55,0.00,,,0.71,,2013-06-04 14:52:00,
2013-06-04 11:02:00,66.0,50.0,29.88,WNW,297,8.0,16.0,57,0.00,,,0.65,,2013-06-04 15:02:00,
2013-06-04 11:12:00,66.0,50.0,29.88,WNW,297,8.0,16.0,57,0.00,,,0.65,,2013-06-04 15:12:00,
2013-06-04 11:22:00,66.0,50.0,29.88,NW,316,7.0,13.0,56,0.00,,,0.65,,2013-06-04 15:22:00,
2013-06-04 11:33:00,67.0,51.0,29.88,West,276,5.0,13.0,56,0.00,,,0.65,,2013-06-04 15:33:00,
2013-06-04 11:42:00,67.0,51.0,29.88,West,276,5.0,13.0,56,0.00,,,0.65,,2013-06-04 15:42:00,
2013-06-04 11:53:00,67.0,50.0,29.89,WNW,301,7.0,14.0,54,0.00,,,0.65,,2013-06-04 15:53:00,
2013-06-04 12:03:00,67.0,49.0,29.89,West,279,4.0,18.0,53,0.00,,,0.35,,2013-06-04 16:03:00,
2013-06-04 12:13:00,67.0,49.0,29.89,West,279,4.0,18.0,53,0.00,,,0.35,,2013-06-04 16:13:00,
2013-06-04 12:23:00,67.0,49.0,29.89,West,279,4.0,18.0,53,0.00,,,0.35,,2013-06-04 16:23:00,
2013-06-04 12:33:00,68.0,50.0,29.89,NNW,329,9.0,18.0,53,0.00,,,0.35,,2013-06-04 16:33:00,
2013-06-04 12:42:00,68.0,50.0,29.89,NNW,329,9.0,18.0,53,0.00,,,0.35,,2013-06-04 16:42:00,
2013-06-04 12:53:00,68.0,49.0,29.89,NW,316,5.0,16.0,51,0.00,,,0.35,,2013-06-04 16:53:00,
2013-06-04 13:03:00,68.0,50.0,29.89,NW,308,4.0,16.0,52,0.00,,,0.24,,2013-06-04 17:03:00,
2013-06-04 13:12:00,68.0,50.0,29.89,NW,308,4.0,16.0,52,0.00,,,0.24,,2013-06-04 17:12:00,
2013-06-04 13:23:00,69.0,54.0,29.89,WNW,290,3.0,12.0,58,0.00,,,0.24,,2013-06-04 17:23:00,
2013-06-04 13:33:00,68.0,50.0,29.89,West,273,5.0,13.0,53,0.00,,,0.24,,2013-06-04 17:33:00,
2013-06-04 13:42:00,68.0,50.0,29.89,West,273,5.0,13.0,53,0.00,,,0.24,,2013-06-04 17:42:00,
2013-06-04 13:52:00,69.0,52.0,29.89,NNW,331,8.0,15.0,54,0.00,,,0.24,,2013-06-04 17:52:00,
2013-06-04 14:02:00,71.0,52.0,29.89,NE,46,6.0,21.0,51,0.00,,,0.24,,2013-06-04 18:02:00,
2013-06-04 14:12:00,71.0,52.0,29.89,NE,46,6.0,21.0,51,0.00,,,0.24,,2013-06-04 18:12:00,
2013-06-04 14:22:00,71.0,54.0,29.89,NNE,22,6.0,15.0,55,0.00,,,0.24,,2013-06-04 18:22:00,
2013-06-04 14:32:00,71.0,51.0,29.90,NNW,333,4.0,17.0,49,0.00,,,0.24,,2013-06-04 18:32:00,
2013-06-04 14:42:00,71.0,51.0,29.90,NNW,333,4.0,17.0,49,0.00,,,0.24,,2013-06-04 18:42:00,
2013-06-04 14:52:00,72.0,52.0,29.90,North,5,5.0,15.0,50,0.00,,,0.24,,2013-06-04 18:52:00,
2013-06-04 15:02:00,70.0,52.0,29.90,NNW,340,2.0,14.0,53,0.00,,,0.24,,2013-06-04 19:02:00,
2013-06-04 15:12:00,70.0,52.0,29.90,NNW,340,2.0,14.0,53,0.00,,,0.24,,2013-06-04 19:12:00,
2013-06-04 15:22:00,69.0,51.0,29.90,NW,325,5.0,16.0,53,0.00,,,0.24,,2013-06-04 19:22:00,
2013-06-04 15:33:00,71.0,52.0,29.90,NW,306,7.0,19.0,52,0.00,,,0.24,,2013-06-04 19:33:00,
2013-06-04 15:42:00,71.0,52.0,29.90,NW,306,7.0,19.0,52,0.00,,,0.24,,2013-06-04 19:42:00,
2013-06-04 15:52:00,71.0,50.0,29.89,NW,321,7.0,13.0,47,0.00,,,0.24,,2013-06-04 19:52:00,
2013-06-04 16:03:00,71.0,51.0,29.90,SW,224,7.0,14.0,49,0.00,,,0.24,,2013-06-04 20:03:00,
2013-06-04 16:12:00,71.0,51.0,29.90,SW,224,7.0,14.0,49,0.00,,,0.24,,2013-06-04 20:12:00,
2013-06-04 16:22:00,71.0,53.0,29.89,NNW,343,5.0,17.0,53,0.00,,,0.24,,2013-06-04 20:22:00,
2013-06-04 16:32:00,72.0,51.0,29.89,North,349,3.0,15.0,48,0.00,,,0.24,,2013-06-04 20:32:00,
2013-06-04 16:42:00,72.0,51.0,29.89,North,349,3.0,15.0,48,0.00,,,0.24,,2013-06-04 20:42:00,
2013-06-04 16:52:00,72.0,55.0,29.89,WNW,301,4.0,11.0,55,0.00,,,0.24,,2013-06-04 20:52:00,
2013-06-04 17:02:00,72.0,52.0,29.89,NNE,13,4.0,16.0,50,0.00,,,0.24,,2013-06-04 21:02:00,
2013-06-04 17:12:00,72.0,52.0,29.89,NNE,13,4.0,16.0,50,0.00,,,0.24,,2013-06-04 21:12:00,
2013-06-04 17:22:00,71.0,52.0,29.89,WNW,294,11.0,17.0,51,0.00,,,0.24,,2013-06-04 21:22:00,
2013-06-04 17:33:00,69.0,50.0,29.90,NNE,14,4.0,20.0,50,0.00,,,0.24,,2013-06-04 21:33:00,
2013-06-04 17:42:00,69.0,50.0,29.90,NNE,14,4.0,20.0,50,0.00,,,0.24,,2013-06-04 21:42:00,
2013-06-04 17:53:00,69.0,50.0,29.90,North,5,6.0,14.0,51,0.00,,,0.24,,2013-06-04 21:53:00,
2013-06-04 18:02:00,69.0,50.0,29.90,North,355,0.0,6.0,50,0.00,,,0.24,,2013-06-04 22:02:00,
2013-06-04 18:13:00,69.0,50.0,29.90,North,355,0.0,6.0,50,0.00,,,0.24,,2013-06-04 22:13:00,
2013-06-04 18:22:00,68.0,50.0,29.90,WNW,302,1.0,9.0,53,0.00,,,0.24,,2013-06-04 22:22:00,
2013-06-04 18:32:00,67.0,50.0,29.90,North,5,5.0,13.0,55,0.00,,,0.24,,2013-06-04 22:32:00,
2013-06-04 18:42:00,67.0,50.0,29.90,North,5,5.0,13.0,55,0.00,,,0.24,,2013-06-04 22:42:00,
2013-06-04 18:52:00,67.0,53.0,29.91,NW,309,5.0,15.0,60,0.00,,,0.24,,2013-06-04 22:52:00,
2013-06-04 19:02:00,67.0,50.0,29.92,NNW,332,1.0,11.0,55,0.00,,,0.24,,2013-06-04 23:02:00,
2013-06-04 19:12:00,67.0,50.0,29.92,NNW,332,1.0,11.0,55,0.00,,,0.24,,2013-06-04 23:12:00,
2013-06-04 19:22:00,67.0,51.0,29.92,NNW,328,1.0,3.0,57,0.00,,,0.24,,2013-06-04 23:22:00,
2013-06-04 19:32:00,65.0,51.0,29.93,NW,317,0.0,5.0,60,0.00,,,0.24,,2013-06-04 23:32:00,
2013-06-04 19:42:00,65.0,51.0,29.93,NW,317,0.0,5.0,60,0.00,,,0.24,,2013-06-04 23:42:00,
2013-06-04 19:52:00,65.0,50.0,29.94,NW,321,1.0,6.0,59,0.00,,,0.24,,2013-06-04 23:52:00,
2013-06-04 20:02:00,64.0,53.0,29.94,WNW,291,0.0,3.0,68,0.00,,,0.24,,2013-06-05 00:02:00,
2013-06-04 20:12:00,64.0,53.0,29.94,WNW,291,0.0,3.0,68,0.00,,,0.24,,2013-06-05 00:12:00,
2013-06-04 20:22:00,63.0,52.0,29.94,WNW,291,1.0,3.0,68,0.00,,,0.24,,2013-06-05 00:22:00,
2013-06-04 20:33:00,61.0,52.0,29.96,WNW,290,1.0,3.0,73,0.00,,,0.24,,2013-06-05 00:33:00,
2013-06-04 20:42:00,61.0,52.0,29.96,WNW,290,1.0,3.0,73,0.00,,,0.24,,2013-06-05 00:42:00,
2013-06-04 20:52:00,61.0,53.0,29.96,WNW,290,1.0,3.0,74,0.00,,,0.24,,2013-06-05 00:52:00,
2013-06-04 21:02:00,60.0,52.0,29.97,WNW,290,0.0,0.0,74,0.00,,,0.18,,2013-06-05 01:02:00,
2013-06-04 21:12:00,60.0,52.0,29.97,WNW,290,0.0,0.0,74,0.00,,,0.18,,2013-06-05 01:12:00,
2013-06-04 21:22:00,59.0,51.0,29.97,WNW,290,0.0,3.0,76,0.00,,,0.18,,2013-06-05 01:22:00,
2013-06-04 21:32:00,58.0,51.0,29.98,WNW,303,0.0,4.0,77,0.00,,,0.18,,2013-06-05 01:32:00,
2013-06-04 21:42:00,58.0,51.0,29.98,WNW,303,0.0,4.0,77,0.00,,,0.18,,2013-06-05 01:42:00,
2013-06-04 21:52:00,58.0,51.0,29.99,WNW,303,0.0,3.0,78,0.00,,,0.18,,2013-06-05 01:52:00,
2013-06-04 22:02:00,57.0,50.0,30.00,WNW,303,0.0,0.0,78,0.00,,,0.00,,2013-06-05 02:02:00,
2013-06-04 22:12:00,57.0,50.0,30.00,WNW,303,0.0,0.0,78,0.00,,,0.00,,2013-06-05 02:12:00,
2013-06-04 22:22:00,56.0,49.0,30.01,WNW,303,0.0,1.0,78,0.00,,,0.00,,2013-06-05 02:22:00,
2013-06-04 22:32:00,55.0,49.0,30.01,WNW,303,0.0,1.0,81,0.00,,,0.00,,2013-06-05 02:32:00,
2013-06-04 22:42:00,55.0,50.0,30.01,WNW,303,0.0,0.0,82,0.00,,,0.00,,2013-06-05 02:42:00,
2013-06-04 22:52:00,55.0,50.0,30.01,WNW,303,0.0,0.0,82,0.00,,,0.00,,2013-06-05 02:52:00,
2013-06-04 23:02:00,55.0,50.0,30.01,WNW,303,0.0,1.0,84,0.00,,,0.00,,2013-06-05 03:02:00,
2013-06-04 23:12:00,54.0,49.0,30.02,WNW,303,0.0,0.0,83,0.00,,,0.00,,2013-06-05 03:12:00,
2013-06-04 23:22:00,54.0,49.0,30.02,WNW,303,0.0,0.0,83,0.00,,,0.00,,2013-06-05 03:22:00,
2013-06-04 23:33:00,54.0,49.0,30.03,WNW,303,0.0,2.0,84,0.00,,,0.00,,2013-06-05 03:33:00,
2013-06-04 23:43:00,54.0,49.0,30.03,WNW,303,0.0,2.0,84,0.00,,,0.00,,2013-06-05 03:43:00,
2013-06-04 23:53:00,54.0,50.0,30.03,NNW,344,2.0,5.0,86,0.00,,,0.00,,2013-06-05 03:53:00,